sensor_id;sensor_type;location;lat;lon;timestamp;temperature;humidity
12568;DHT22;6349;50.904;6.136;2023-12-20T00:01:43;7.90;99.90
12568;DHT22;6349;50.904;6.136;2023-12-20T00:03:44;7.80;99.90
12568;DHT22;6349;50.904;6.136;2023-12-20T00:05:46;7.80;99.90
12568;DHT22;6349;50.904;6.136;2023-12-20T00:07:47;7.80;99.90
12568;DHT22;6349;50.904;6.136;2023-12-20T00:09:47;7.80;99.90
12568;DHT22;6349;50.904;6.136;2023-12-20T00:11:48;7.80;99.90
12568;DHT22;6349;50.904;6.136;2023-12-20T00:13:48;7.80;99.90
12568;DHT22;6349;50.904;6.136;2023-12-20T00:15:49;7.80;99.90
12568;DHT22;6349;50.904;6.136;2023-12-20T00:17:50;7.80;99.90
12568;DHT22;6349;50.904;6.136;2023-12-20T00:19:50;7.80;99.90
12568;DHT22;6349;50.904;6.136;2023-12-20T00:21:51;7.80;99.90
12568;DHT22;6349;50.904;6.136;2023-12-20T00:23:51;7.80;99.90
12568;DHT22;6349;50.904;6.136;2023-12-20T00:25:52;7.80;99.90
12568;DHT22;6349;50.904;6.136;2023-12-20T00:27:52;7.80;99.90
12568;DHT22;6349;50.904;6.136;2023-12-20T00:29:53;7.80;99.90
12568;DHT22;6349;50.904;6.136;2023-12-20T00:31:53;7.80;99.90
12568;DHT22;6349;50.904;6.136;2023-12-20T00:33:54;7.80;99.90
12568;DHT22;6349;50.904;6.136;2023-12-20T00:35:55;7.80;99.90
12568;DHT22;6349;50.904;6.136;2023-12-20T00:37:55;7.70;99.90
12568;DHT22;6349;50.904;6.136;2023-12-20T00:39:56;7.80;99.90
12568;DHT22;6349;50.904;6.136;2023-12-20T00:41:56;7.80;99.90
12568;DHT22;6349;50.904;6.136;2023-12-20T00:43:57;7.80;99.90
12568;DHT22;6349;50.904;6.136;2023-12-20T00:45:57;7.70;99.90
12568;DHT22;6349;50.904;6.136;2023-12-20T00:48:00;7.60;99.90
12568;DHT22;6349;50.904;6.136;2023-12-20T00:50:00;7.60;99.90
12568;DHT22;6349;50.904;6.136;2023-12-20T00:52:01;7.60;99.90
12568;DHT22;6349;50.904;6.136;2023-12-20T00:54:02;7.50;99.90
12568;DHT22;6349;50.904;6.136;2023-12-20T00:56:02;7.40;99.90
12568;DHT22;6349;50.904;6.136;2023-12-20T00:58:03;7.40;99.90
12568;DHT22;6349;50.904;6.136;2023-12-20T01:00:05;7.40;99.90
12568;DHT22;6349;50.904;6.136;2023-12-20T01:02:05;7.30;99.90
12568;DHT22;6349;50.904;6.136;2023-12-20T01:04:06;7.20;99.90
12568;DHT22;6349;50.904;6.136;2023-12-20T01:06:06;7.20;99.90
12568;DHT22;6349;50.904;6.136;2023-12-20T01:08:07;7.10;99.90
12568;DHT22;6349;50.904;6.136;2023-12-20T01:10:08;7.10;99.90
12568;DHT22;6349;50.904;6.136;2023-12-20T01:12:09;7.00;99.90
12568;DHT22;6349;50.904;6.136;2023-12-20T01:14:09;7.00;99.90
12568;DHT22;6349;50.904;6.136;2023-12-20T01:16:12;7.00;99.90
12568;DHT22;6349;50.904;6.136;2023-12-20T01:18:13;7.00;99.90
12568;DHT22;6349;50.904;6.136;2023-12-20T01:20:14;6.90;99.90
12568;DHT22;6349;50.904;6.136;2023-12-20T01:22:14;6.90;99.90
12568;DHT22;6349;50.904;6.136;2023-12-20T01:24:15;6.80;99.90
12568;DHT22;6349;50.904;6.136;2023-12-20T01:26:15;6.80;99.90
12568;DHT22;6349;50.904;6.136;2023-12-20T01:28:16;6.80;99.90
12568;DHT22;6349;50.904;6.136;2023-12-20T01:30:16;6.70;99.90
12568;DHT22;6349;50.904;6.136;2023-12-20T01:32:17;6.70;99.90
12568;DHT22;6349;50.904;6.136;2023-12-20T01:34:18;6.70;99.90
12568;DHT22;6349;50.904;6.136;2023-12-20T01:36:18;6.70;99.90
12568;DHT22;6349;50.904;6.136;2023-12-20T01:38:20;6.70;99.90
12568;DHT22;6349;50.904;6.136;2023-12-20T01:40:20;6.70;99.90
12568;DHT22;6349;50.904;6.136;2023-12-20T01:42:21;6.70;99.90
12568;DHT22;6349;50.904;6.136;2023-12-20T01:44:22;6.70;99.90
12568;DHT22;6349;50.904;6.136;2023-12-20T01:46:23;6.70;99.90
12568;DHT22;6349;50.904;6.136;2023-12-20T01:48:24;6.70;99.90
12568;DHT22;6349;50.904;6.136;2023-12-20T01:50:25;6.70;99.90
12568;DHT22;6349;50.904;6.136;2023-12-20T01:52:27;6.70;99.90
12568;DHT22;6349;50.904;6.136;2023-12-20T01:54:28;6.70;99.90
12568;DHT22;6349;50.904;6.136;2023-12-20T01:56:29;6.70;99.90
12568;DHT22;6349;50.904;6.136;2023-12-20T01:58:31;6.60;99.90
12568;DHT22;6349;50.904;6.136;2023-12-20T02:00:33;6.70;99.90
12568;DHT22;6349;50.904;6.136;2023-12-20T02:02:35;6.70;99.90
12568;DHT22;6349;50.904;6.136;2023-12-20T02:04:36;6.70;99.90
12568;DHT22;6349;50.904;6.136;2023-12-20T02:06:39;6.70;99.90
12568;DHT22;6349;50.904;6.136;2023-12-20T02:08:40;6.60;99.90
12568;DHT22;6349;50.904;6.136;2023-12-20T02:10:41;6.60;99.90
12568;DHT22;6349;50.904;6.136;2023-12-20T02:12:42;6.60;99.90
12568;DHT22;6349;50.904;6.136;2023-12-20T02:14:43;6.70;99.90
12568;DHT22;6349;50.904;6.136;2023-12-20T02:16:43;6.70;99.90
12568;DHT22;6349;50.904;6.136;2023-12-20T02:18:44;6.70;99.90
12568;DHT22;6349;50.904;6.136;2023-12-20T02:20:44;6.60;99.90
12568;DHT22;6349;50.904;6.136;2023-12-20T02:22:45;6.60;99.90
12568;DHT22;6349;50.904;6.136;2023-12-20T02:24:46;6.60;99.90
12568;DHT22;6349;50.904;6.136;2023-12-20T02:26:46;6.60;99.90
12568;DHT22;6349;50.904;6.136;2023-12-20T02:28:47;6.60;99.90
12568;DHT22;6349;50.904;6.136;2023-12-20T02:30:47;6.60;99.90
12568;DHT22;6349;50.904;6.136;2023-12-20T02:32:50;6.60;99.90
12568;DHT22;6349;50.904;6.136;2023-12-20T02:34:51;6.50;99.90
12568;DHT22;6349;50.904;6.136;2023-12-20T02:36:52;6.50;99.90
12568;DHT22;6349;50.904;6.136;2023-12-20T02:38:53;6.50;99.90
12568;DHT22;6349;50.904;6.136;2023-12-20T02:40:53;6.60;99.90
12568;DHT22;6349;50.904;6.136;2023-12-20T02:42:54;6.50;99.90
12568;DHT22;6349;50.904;6.136;2023-12-20T02:44:54;6.50;99.90
12568;DHT22;6349;50.904;6.136;2023-12-20T02:46:55;6.50;99.90
12568;DHT22;6349;50.904;6.136;2023-12-20T02:48:55;6.50;99.90
12568;DHT22;6349;50.904;6.136;2023-12-20T02:50:56;6.50;99.90
12568;DHT22;6349;50.904;6.136;2023-12-20T02:52:56;6.50;99.90
12568;DHT22;6349;50.904;6.136;2023-12-20T02:54:57;6.50;99.90
12568;DHT22;6349;50.904;6.136;2023-12-20T02:56:57;6.50;99.90
12568;DHT22;6349;50.904;6.136;2023-12-20T02:58:58;6.50;99.90
12568;DHT22;6349;50.904;6.136;2023-12-20T03:00:58;6.50;99.90
12568;DHT22;6349;50.904;6.136;2023-12-20T03:02:59;6.50;99.90
12568;DHT22;6349;50.904;6.136;2023-12-20T03:05:00;6.50;99.90
12568;DHT22;6349;50.904;6.136;2023-12-20T03:07:01;6.50;99.90
12568;DHT22;6349;50.904;6.136;2023-12-20T03:09:01;6.50;99.90
12568;DHT22;6349;50.904;6.136;2023-12-20T03:11:02;6.50;99.90
12568;DHT22;6349;50.904;6.136;2023-12-20T03:13:02;6.40;99.90
12568;DHT22;6349;50.904;6.136;2023-12-20T03:15:03;6.40;99.90
12568;DHT22;6349;50.904;6.136;2023-12-20T03:17:05;6.40;99.90
12568;DHT22;6349;50.904;6.136;2023-12-20T03:19:06;6.40;99.90
12568;DHT22;6349;50.904;6.136;2023-12-20T03:21:07;6.40;99.90
12568;DHT22;6349;50.904;6.136;2023-12-20T03:23:07;6.40;99.90
12568;DHT22;6349;50.904;6.136;2023-12-20T03:25:08;6.50;99.90
12568;DHT22;6349;50.904;6.136;2023-12-20T03:27:08;6.40;99.90
12568;DHT22;6349;50.904;6.136;2023-12-20T03:29:09;6.40;99.90
12568;DHT22;6349;50.904;6.136;2023-12-20T03:31:09;6.40;99.90
12568;DHT22;6349;50.904;6.136;2023-12-20T03:33:10;6.40;99.90
12568;DHT22;6349;50.904;6.136;2023-12-20T03:35:11;6.40;99.90
12568;DHT22;6349;50.904;6.136;2023-12-20T03:37:11;6.40;99.90
12568;DHT22;6349;50.904;6.136;2023-12-20T03:39:12;6.30;99.90
12568;DHT22;6349;50.904;6.136;2023-12-20T03:41:13;6.30;99.90
12568;DHT22;6349;50.904;6.136;2023-12-20T03:43:13;6.30;99.90
12568;DHT22;6349;50.904;6.136;2023-12-20T03:45:14;6.30;99.90
12568;DHT22;6349;50.904;6.136;2023-12-20T03:47:14;6.30;99.90
12568;DHT22;6349;50.904;6.136;2023-12-20T03:49:15;6.20;99.90
12568;DHT22;6349;50.904;6.136;2023-12-20T03:51:15;6.30;99.90
12568;DHT22;6349;50.904;6.136;2023-12-20T03:53:16;6.20;99.90
12568;DHT22;6349;50.904;6.136;2023-12-20T03:55:17;6.20;99.90
12568;DHT22;6349;50.904;6.136;2023-12-20T03:57:17;6.20;99.90
12568;DHT22;6349;50.904;6.136;2023-12-20T03:59:18;6.20;99.90
12568;DHT22;6349;50.904;6.136;2023-12-20T04:01:18;6.20;99.90
12568;DHT22;6349;50.904;6.136;2023-12-20T04:03:19;6.20;99.90
12568;DHT22;6349;50.904;6.136;2023-12-20T04:05:20;6.20;99.90
12568;DHT22;6349;50.904;6.136;2023-12-20T04:07:20;6.20;99.90
12568;DHT22;6349;50.904;6.136;2023-12-20T04:09:21;6.20;99.90
12568;DHT22;6349;50.904;6.136;2023-12-20T04:11:21;6.20;99.90
12568;DHT22;6349;50.904;6.136;2023-12-20T04:13:22;6.20;99.90
12568;DHT22;6349;50.904;6.136;2023-12-20T04:15:22;6.20;99.90
12568;DHT22;6349;50.904;6.136;2023-12-20T04:17:23;6.20;99.90
12568;DHT22;6349;50.904;6.136;2023-12-20T04:19:24;6.10;99.90
12568;DHT22;6349;50.904;6.136;2023-12-20T04:21:24;6.20;99.90
12568;DHT22;6349;50.904;6.136;2023-12-20T04:23:25;6.10;99.90
12568;DHT22;6349;50.904;6.136;2023-12-20T04:25:25;6.10;99.90
12568;DHT22;6349;50.904;6.136;2023-12-20T04:27:26;6.10;99.90
12568;DHT22;6349;50.904;6.136;2023-12-20T04:29:26;6.10;99.90
12568;DHT22;6349;50.904;6.136;2023-12-20T04:31:27;6.10;99.90
12568;DHT22;6349;50.904;6.136;2023-12-20T04:33:27;6.00;99.90
12568;DHT22;6349;50.904;6.136;2023-12-20T04:35:28;6.00;99.90
12568;DHT22;6349;50.904;6.136;2023-12-20T04:37:28;6.10;99.90
12568;DHT22;6349;50.904;6.136;2023-12-20T04:39:29;6.10;99.90
12568;DHT22;6349;50.904;6.136;2023-12-20T04:41:29;6.10;99.90
12568;DHT22;6349;50.904;6.136;2023-12-20T04:43:30;6.00;99.90
12568;DHT22;6349;50.904;6.136;2023-12-20T04:45:31;6.00;99.90
12568;DHT22;6349;50.904;6.136;2023-12-20T04:47:31;6.00;99.90
12568;DHT22;6349;50.904;6.136;2023-12-20T04:49:32;6.10;99.90
12568;DHT22;6349;50.904;6.136;2023-12-20T04:51:35;6.10;99.90
12568;DHT22;6349;50.904;6.136;2023-12-20T04:53:36;6.10;99.90
12568;DHT22;6349;50.904;6.136;2023-12-20T04:55:36;6.10;99.90
12568;DHT22;6349;50.904;6.136;2023-12-20T04:57:37;6.10;99.90
12568;DHT22;6349;50.904;6.136;2023-12-20T04:59:37;6.10;99.90
12568;DHT22;6349;50.904;6.136;2023-12-20T05:01:38;6.10;99.90
12568;DHT22;6349;50.904;6.136;2023-12-20T05:03:39;6.10;99.90
12568;DHT22;6349;50.904;6.136;2023-12-20T05:05:39;6.10;99.90
12568;DHT22;6349;50.904;6.136;2023-12-20T05:07:40;6.10;99.90
12568;DHT22;6349;50.904;6.136;2023-12-20T05:09:40;6.10;99.90
12568;DHT22;6349;50.904;6.136;2023-12-20T05:11:41;6.10;99.90
12568;DHT22;6349;50.904;6.136;2023-12-20T05:13:42;6.10;99.90
12568;DHT22;6349;50.904;6.136;2023-12-20T05:15:42;6.10;99.90
12568;DHT22;6349;50.904;6.136;2023-12-20T05:17:43;6.10;99.90
12568;DHT22;6349;50.904;6.136;2023-12-20T05:19:44;6.10;99.90
12568;DHT22;6349;50.904;6.136;2023-12-20T05:21:44;6.10;99.90
12568;DHT22;6349;50.904;6.136;2023-12-20T05:23:45;6.10;99.90
12568;DHT22;6349;50.904;6.136;2023-12-20T05:25:46;6.10;99.90
12568;DHT22;6349;50.904;6.136;2023-12-20T05:27:47;6.10;99.90
12568;DHT22;6349;50.904;6.136;2023-12-20T05:29:48;6.10;99.90
12568;DHT22;6349;50.904;6.136;2023-12-20T05:31:48;6.10;99.90
12568;DHT22;6349;50.904;6.136;2023-12-20T05:33:49;6.20;99.90
12568;DHT22;6349;50.904;6.136;2023-12-20T05:35:50;6.10;99.90
12568;DHT22;6349;50.904;6.136;2023-12-20T05:37:50;6.20;99.90
12568;DHT22;6349;50.904;6.136;2023-12-20T05:39:51;6.20;99.90
12568;DHT22;6349;50.904;6.136;2023-12-20T05:41:51;6.20;99.90
12568;DHT22;6349;50.904;6.136;2023-12-20T05:43:52;6.20;99.90
12568;DHT22;6349;50.904;6.136;2023-12-20T05:45:53;6.20;99.90
12568;DHT22;6349;50.904;6.136;2023-12-20T05:47:53;6.10;99.90
12568;DHT22;6349;50.904;6.136;2023-12-20T05:49:54;6.20;99.90
12568;DHT22;6349;50.904;6.136;2023-12-20T05:51:54;6.20;99.90
12568;DHT22;6349;50.904;6.136;2023-12-20T05:53:55;6.10;99.90
12568;DHT22;6349;50.904;6.136;2023-12-20T05:55:56;6.20;99.90
12568;DHT22;6349;50.904;6.136;2023-12-20T05:57:56;6.20;99.90
12568;DHT22;6349;50.904;6.136;2023-12-20T05:59:57;6.20;99.90
12568;DHT22;6349;50.904;6.136;2023-12-20T06:01:57;6.20;99.90
12568;DHT22;6349;50.904;6.136;2023-12-20T06:03:58;6.20;99.90
12568;DHT22;6349;50.904;6.136;2023-12-20T06:05:58;6.20;99.90
12568;DHT22;6349;50.904;6.136;2023-12-20T06:08:00;6.20;99.90
12568;DHT22;6349;50.904;6.136;2023-12-20T06:10:03;6.20;99.90
12568;DHT22;6349;50.904;6.136;2023-12-20T06:12:04;6.10;99.90
12568;DHT22;6349;50.904;6.136;2023-12-20T06:14:05;6.10;99.90
12568;DHT22;6349;50.904;6.136;2023-12-20T06:16:06;6.10;99.90
12568;DHT22;6349;50.904;6.136;2023-12-20T06:18:07;6.10;99.90
12568;DHT22;6349;50.904;6.136;2023-12-20T06:20:08;6.10;99.90
12568;DHT22;6349;50.904;6.136;2023-12-20T06:22:09;6.10;99.90
12568;DHT22;6349;50.904;6.136;2023-12-20T06:24:09;6.10;99.90
12568;DHT22;6349;50.904;6.136;2023-12-20T06:26:10;6.10;99.90
12568;DHT22;6349;50.904;6.136;2023-12-20T06:28:11;6.10;99.90
12568;DHT22;6349;50.904;6.136;2023-12-20T06:30:15;6.10;99.90
12568;DHT22;6349;50.904;6.136;2023-12-20T06:32:16;6.10;99.90
12568;DHT22;6349;50.904;6.136;2023-12-20T06:34:16;6.10;99.90
12568;DHT22;6349;50.904;6.136;2023-12-20T06:36:17;6.10;99.90
12568;DHT22;6349;50.904;6.136;2023-12-20T06:38:18;6.00;99.90
12568;DHT22;6349;50.904;6.136;2023-12-20T06:40:19;6.00;99.90
12568;DHT22;6349;50.904;6.136;2023-12-20T06:42:19;6.00;99.90
12568;DHT22;6349;50.904;6.136;2023-12-20T06:44:20;6.00;99.90
12568;DHT22;6349;50.904;6.136;2023-12-20T06:46:21;6.00;99.90
12568;DHT22;6349;50.904;6.136;2023-12-20T06:48:22;6.00;99.90
12568;DHT22;6349;50.904;6.136;2023-12-20T06:50:22;6.00;99.90
12568;DHT22;6349;50.904;6.136;2023-12-20T06:52:23;6.00;99.90
12568;DHT22;6349;50.904;6.136;2023-12-20T06:54:23;6.00;99.90
12568;DHT22;6349;50.904;6.136;2023-12-20T06:56:24;6.00;99.90
12568;DHT22;6349;50.904;6.136;2023-12-20T06:58:24;6.00;99.90
12568;DHT22;6349;50.904;6.136;2023-12-20T07:00:25;6.00;99.90
12568;DHT22;6349;50.904;6.136;2023-12-20T07:02:26;6.10;99.90
12568;DHT22;6349;50.904;6.136;2023-12-20T07:04:29;6.10;99.90
12568;DHT22;6349;50.904;6.136;2023-12-20T07:06:32;6.10;99.90
12568;DHT22;6349;50.904;6.136;2023-12-20T07:08:33;6.10;99.90
12568;DHT22;6349;50.904;6.136;2023-12-20T07:10:33;6.10;99.90
12568;DHT22;6349;50.904;6.136;2023-12-20T07:12:34;6.00;99.90
12568;DHT22;6349;50.904;6.136;2023-12-20T07:14:34;6.00;99.90
12568;DHT22;6349;50.904;6.136;2023-12-20T07:16:35;6.00;99.90
12568;DHT22;6349;50.904;6.136;2023-12-20T07:18:37;6.00;99.90
12568;DHT22;6349;50.904;6.136;2023-12-20T07:20:37;6.00;99.90
12568;DHT22;6349;50.904;6.136;2023-12-20T07:22:38;6.00;99.90
12568;DHT22;6349;50.904;6.136;2023-12-20T07:24:39;6.00;99.90
12568;DHT22;6349;50.904;6.136;2023-12-20T07:26:39;6.00;99.90
12568;DHT22;6349;50.904;6.136;2023-12-20T07:28:40;6.00;99.90
12568;DHT22;6349;50.904;6.136;2023-12-20T07:30:41;6.00;99.90
12568;DHT22;6349;50.904;6.136;2023-12-20T07:32:41;6.00;99.90
12568;DHT22;6349;50.904;6.136;2023-12-20T07:34:42;5.90;99.90
12568;DHT22;6349;50.904;6.136;2023-12-20T07:36:42;5.90;99.90
12568;DHT22;6349;50.904;6.136;2023-12-20T07:38:43;5.90;99.90
12568;DHT22;6349;50.904;6.136;2023-12-20T07:40:44;5.90;99.90
12568;DHT22;6349;50.904;6.136;2023-12-20T07:42:45;5.90;99.90
12568;DHT22;6349;50.904;6.136;2023-12-20T07:44:45;5.90;99.90
12568;DHT22;6349;50.904;6.136;2023-12-20T07:46:46;5.80;99.90
12568;DHT22;6349;50.904;6.136;2023-12-20T07:48:46;5.80;99.90
12568;DHT22;6349;50.904;6.136;2023-12-20T07:50:47;5.80;99.90
12568;DHT22;6349;50.904;6.136;2023-12-20T07:52:48;5.80;99.90
12568;DHT22;6349;50.904;6.136;2023-12-20T07:54:48;5.80;99.90
12568;DHT22;6349;50.904;6.136;2023-12-20T07:56:49;5.70;99.90
12568;DHT22;6349;50.904;6.136;2023-12-20T07:58:49;5.80;99.90
12568;DHT22;6349;50.904;6.136;2023-12-20T08:00:50;5.70;99.90
12568;DHT22;6349;50.904;6.136;2023-12-20T08:02:51;5.80;99.90
12568;DHT22;6349;50.904;6.136;2023-12-20T08:04:51;5.80;99.90
12568;DHT22;6349;50.904;6.136;2023-12-20T08:06:52;5.80;99.90
12568;DHT22;6349;50.904;6.136;2023-12-20T08:08:52;5.80;99.90
12568;DHT22;6349;50.904;6.136;2023-12-20T08:10:53;5.80;99.90
12568;DHT22;6349;50.904;6.136;2023-12-20T08:12:53;5.80;99.90
12568;DHT22;6349;50.904;6.136;2023-12-20T08:14:54;5.80;99.90
12568;DHT22;6349;50.904;6.136;2023-12-20T08:16:55;5.80;99.90
12568;DHT22;6349;50.904;6.136;2023-12-20T08:18:55;5.90;99.90
12568;DHT22;6349;50.904;6.136;2023-12-20T08:20:56;5.80;99.90
12568;DHT22;6349;50.904;6.136;2023-12-20T08:22:56;5.90;99.90
12568;DHT22;6349;50.904;6.136;2023-12-20T08:24:57;5.80;99.90
12568;DHT22;6349;50.904;6.136;2023-12-20T08:26:58;5.80;99.90
12568;DHT22;6349;50.904;6.136;2023-12-20T08:28:58;5.80;99.90
12568;DHT22;6349;50.904;6.136;2023-12-20T08:31:00;5.80;99.90
12568;DHT22;6349;50.904;6.136;2023-12-20T08:33:01;5.80;99.90
12568;DHT22;6349;50.904;6.136;2023-12-20T08:35:01;5.90;99.90
12568;DHT22;6349;50.904;6.136;2023-12-20T08:37:03;5.90;99.90
12568;DHT22;6349;50.904;6.136;2023-12-20T08:39:03;5.90;99.90
12568;DHT22;6349;50.904;6.136;2023-12-20T08:41:07;5.90;99.90
12568;DHT22;6349;50.904;6.136;2023-12-20T08:43:07;5.90;99.90
12568;DHT22;6349;50.904;6.136;2023-12-20T08:45:08;5.90;99.90
12568;DHT22;6349;50.904;6.136;2023-12-20T08:47:09;6.00;99.90
12568;DHT22;6349;50.904;6.136;2023-12-20T08:49:13;6.00;99.90
12568;DHT22;6349;50.904;6.136;2023-12-20T08:51:14;5.90;99.90
12568;DHT22;6349;50.904;6.136;2023-12-20T08:53:15;6.00;99.90
12568;DHT22;6349;50.904;6.136;2023-12-20T08:55:16;6.00;99.90
12568;DHT22;6349;50.904;6.136;2023-12-20T08:57:19;6.00;99.90
12568;DHT22;6349;50.904;6.136;2023-12-20T08:59:21;6.00;99.90
12568;DHT22;6349;50.904;6.136;2023-12-20T09:01:21;6.10;99.90
12568;DHT22;6349;50.904;6.136;2023-12-20T09:03:22;6.10;99.90
12568;DHT22;6349;50.904;6.136;2023-12-20T09:05:23;6.10;99.90
12568;DHT22;6349;50.904;6.136;2023-12-20T09:07:24;6.10;99.90
12568;DHT22;6349;50.904;6.136;2023-12-20T09:09:25;6.10;99.90
12568;DHT22;6349;50.904;6.136;2023-12-20T09:11:25;6.10;99.90
12568;DHT22;6349;50.904;6.136;2023-12-20T09:13:26;6.10;99.90
12568;DHT22;6349;50.904;6.136;2023-12-20T09:15:30;6.00;99.90
12568;DHT22;6349;50.904;6.136;2023-12-20T09:17:30;6.00;99.90
12568;DHT22;6349;50.904;6.136;2023-12-20T09:19:31;6.00;99.90
12568;DHT22;6349;50.904;6.136;2023-12-20T09:21:31;6.10;99.90
12568;DHT22;6349;50.904;6.136;2023-12-20T09:23:32;6.10;99.90
12568;DHT22;6349;50.904;6.136;2023-12-20T09:25:33;6.20;99.90
12568;DHT22;6349;50.904;6.136;2023-12-20T09:27:33;6.20;99.90
12568;DHT22;6349;50.904;6.136;2023-12-20T09:29:34;6.20;99.90
12568;DHT22;6349;50.904;6.136;2023-12-20T09:31:36;6.20;99.90
12568;DHT22;6349;50.904;6.136;2023-12-20T09:33:37;6.20;99.90
12568;DHT22;6349;50.904;6.136;2023-12-20T09:35:37;6.10;99.90
12568;DHT22;6349;50.904;6.136;2023-12-20T09:37:38;6.10;99.90
12568;DHT22;6349;50.904;6.136;2023-12-20T09:39:41;6.20;99.90
12568;DHT22;6349;50.904;6.136;2023-12-20T09:41:43;6.20;99.90
12568;DHT22;6349;50.904;6.136;2023-12-20T09:43:45;6.20;99.90
12568;DHT22;6349;50.904;6.136;2023-12-20T09:45:46;6.20;99.90
12568;DHT22;6349;50.904;6.136;2023-12-20T09:47:52;6.10;99.90
12568;DHT22;6349;50.904;6.136;2023-12-20T09:49:53;6.20;99.90
12568;DHT22;6349;50.904;6.136;2023-12-20T09:51:54;6.20;99.90
12568;DHT22;6349;50.904;6.136;2023-12-20T09:53:56;6.20;99.90
12568;DHT22;6349;50.904;6.136;2023-12-20T09:55:58;6.30;99.90
12568;DHT22;6349;50.904;6.136;2023-12-20T09:58:02;6.20;99.90
12568;DHT22;6349;50.904;6.136;2023-12-20T10:00:03;6.20;99.90
12568;DHT22;6349;50.904;6.136;2023-12-20T10:02:06;6.20;99.90
12568;DHT22;6349;50.904;6.136;2023-12-20T10:04:10;6.20;99.90
12568;DHT22;6349;50.904;6.136;2023-12-20T10:06:13;6.30;99.90
12568;DHT22;6349;50.904;6.136;2023-12-20T10:08:14;6.20;99.90
12568;DHT22;6349;50.904;6.136;2023-12-20T10:10:14;6.30;99.90
12568;DHT22;6349;50.904;6.136;2023-12-20T10:12:15;6.30;99.90
12568;DHT22;6349;50.904;6.136;2023-12-20T10:14:16;6.30;99.90
12568;DHT22;6349;50.904;6.136;2023-12-20T10:16:16;6.30;99.90
12568;DHT22;6349;50.904;6.136;2023-12-20T10:18:17;6.30;99.90
12568;DHT22;6349;50.904;6.136;2023-12-20T10:20:18;6.30;99.90
12568;DHT22;6349;50.904;6.136;2023-12-20T10:22:18;6.30;99.90
12568;DHT22;6349;50.904;6.136;2023-12-20T10:24:19;6.30;99.90
12568;DHT22;6349;50.904;6.136;2023-12-20T10:26:20;6.30;99.90
12568;DHT22;6349;50.904;6.136;2023-12-20T10:28:21;6.30;99.90
12568;DHT22;6349;50.904;6.136;2023-12-20T10:30:23;6.30;99.90
12568;DHT22;6349;50.904;6.136;2023-12-20T10:32:26;6.40;99.90
12568;DHT22;6349;50.904;6.136;2023-12-20T10:34:27;6.40;99.90
12568;DHT22;6349;50.904;6.136;2023-12-20T10:36:32;6.50;99.90
12568;DHT22;6349;50.904;6.136;2023-12-20T10:38:35;6.40;99.90
12568;DHT22;6349;50.904;6.136;2023-12-20T10:40:36;6.50;99.90
12568;DHT22;6349;50.904;6.136;2023-12-20T10:42:38;6.50;99.90
12568;DHT22;6349;50.904;6.136;2023-12-20T10:44:41;6.50;99.90
12568;DHT22;6349;50.904;6.136;2023-12-20T10:46:42;6.50;99.90
12568;DHT22;6349;50.904;6.136;2023-12-20T10:48:53;6.50;99.90
12568;DHT22;6349;50.904;6.136;2023-12-20T10:50:55;6.50;99.90
12568;DHT22;6349;50.904;6.136;2023-12-20T10:52:57;6.50;99.90
12568;DHT22;6349;50.904;6.136;2023-12-20T10:54:58;6.50;99.90
12568;DHT22;6349;50.904;6.136;2023-12-20T10:56:58;6.50;99.90
12568;DHT22;6349;50.904;6.136;2023-12-20T10:59:02;6.50;99.90
12568;DHT22;6349;50.904;6.136;2023-12-20T11:01:06;6.40;99.90
12568;DHT22;6349;50.904;6.136;2023-12-20T11:03:09;6.50;99.90
12568;DHT22;6349;50.904;6.136;2023-12-20T11:07:59;6.50;99.90
12568;DHT22;6349;50.904;6.136;2023-12-20T11:12:16;6.50;99.90
12568;DHT22;6349;50.904;6.136;2023-12-20T11:14:50;6.50;99.90
12568;DHT22;6349;50.904;6.136;2023-12-20T11:16:48;6.50;99.90
12568;DHT22;6349;50.904;6.136;2023-12-20T11:18:51;6.50;99.90
12568;DHT22;6349;50.904;6.136;2023-12-20T11:20:51;6.50;99.90
12568;DHT22;6349;50.904;6.136;2023-12-20T11:22:53;6.50;99.90
12568;DHT22;6349;50.904;6.136;2023-12-20T11:24:54;6.50;99.90
12568;DHT22;6349;50.904;6.136;2023-12-20T11:26:59;6.60;99.90
12568;DHT22;6349;50.904;6.136;2023-12-20T11:29:33;6.60;99.90
12568;DHT22;6349;50.904;6.136;2023-12-20T11:31:40;6.60;99.90
12568;DHT22;6349;50.904;6.136;2023-12-20T11:33:41;6.60;99.90
12568;DHT22;6349;50.904;6.136;2023-12-20T11:35:45;6.60;99.90
12568;DHT22;6349;50.904;6.136;2023-12-20T11:37:46;6.60;99.90
12568;DHT22;6349;50.904;6.136;2023-12-20T11:39:56;6.60;99.90
12568;DHT22;6349;50.904;6.136;2023-12-20T11:42:04;6.60;99.90
12568;DHT22;6349;50.904;6.136;2023-12-20T11:44:07;6.60;99.90
12568;DHT22;6349;50.904;6.136;2023-12-20T11:46:09;6.60;99.90
12568;DHT22;6349;50.904;6.136;2023-12-20T11:48:10;6.60;99.90
12568;DHT22;6349;50.904;6.136;2023-12-20T11:50:11;6.60;99.90
12568;DHT22;6349;50.904;6.136;2023-12-20T11:52:12;6.70;99.90
12568;DHT22;6349;50.904;6.136;2023-12-20T11:54:14;6.70;99.90
12568;DHT22;6349;50.904;6.136;2023-12-20T11:56:15;6.70;99.90
12568;DHT22;6349;50.904;6.136;2023-12-20T11:58:16;6.70;99.90
12568;DHT22;6349;50.904;6.136;2023-12-20T12:00:17;6.70;99.90
12568;DHT22;6349;50.904;6.136;2023-12-20T12:02:18;6.70;99.90
12568;DHT22;6349;50.904;6.136;2023-12-20T12:04:18;6.70;99.90
12568;DHT22;6349;50.904;6.136;2023-12-20T12:06:21;6.70;99.90
12568;DHT22;6349;50.904;6.136;2023-12-20T12:08:21;6.70;99.90
12568;DHT22;6349;50.904;6.136;2023-12-20T12:10:22;6.70;99.90
12568;DHT22;6349;50.904;6.136;2023-12-20T12:12:23;6.70;99.90
12568;DHT22;6349;50.904;6.136;2023-12-20T12:14:25;6.70;99.90
12568;DHT22;6349;50.904;6.136;2023-12-20T12:16:26;6.70;99.90
12568;DHT22;6349;50.904;6.136;2023-12-20T12:18:27;6.70;99.90
12568;DHT22;6349;50.904;6.136;2023-12-20T12:20:27;6.80;99.90
12568;DHT22;6349;50.904;6.136;2023-12-20T12:22:28;6.70;99.90
12568;DHT22;6349;50.904;6.136;2023-12-20T12:24:28;6.70;99.90
12568;DHT22;6349;50.904;6.136;2023-12-20T12:26:30;6.70;99.90
12568;DHT22;6349;50.904;6.136;2023-12-20T12:28:31;6.70;99.90
12568;DHT22;6349;50.904;6.136;2023-12-20T12:30:33;6.70;99.90
12568;DHT22;6349;50.904;6.136;2023-12-20T12:32:33;6.80;99.90
12568;DHT22;6349;50.904;6.136;2023-12-20T12:34:37;6.80;99.90
12568;DHT22;6349;50.904;6.136;2023-12-20T12:36:37;6.80;99.90
12568;DHT22;6349;50.904;6.136;2023-12-20T12:38:38;6.80;99.90
12568;DHT22;6349;50.904;6.136;2023-12-20T12:40:39;6.80;99.90
12568;DHT22;6349;50.904;6.136;2023-12-20T12:42:40;6.90;99.90
12568;DHT22;6349;50.904;6.136;2023-12-20T12:44:41;6.90;99.90
12568;DHT22;6349;50.904;6.136;2023-12-20T12:46:42;6.80;99.90
12568;DHT22;6349;50.904;6.136;2023-12-20T12:48:42;6.80;99.90
12568;DHT22;6349;50.904;6.136;2023-12-20T12:50:44;6.80;99.90
12568;DHT22;6349;50.904;6.136;2023-12-20T12:52:45;6.80;99.90
12568;DHT22;6349;50.904;6.136;2023-12-20T12:54:46;6.80;99.90
12568;DHT22;6349;50.904;6.136;2023-12-20T12:56:47;6.70;99.90
12568;DHT22;6349;50.904;6.136;2023-12-20T12:58:48;6.70;99.90
12568;DHT22;6349;50.904;6.136;2023-12-20T13:00:48;6.80;99.90
12568;DHT22;6349;50.904;6.136;2023-12-20T13:02:49;6.80;99.90
12568;DHT22;6349;50.904;6.136;2023-12-20T13:04:50;6.70;99.90
12568;DHT22;6349;50.904;6.136;2023-12-20T13:06:50;6.80;99.90
12568;DHT22;6349;50.904;6.136;2023-12-20T13:08:51;6.80;99.90
12568;DHT22;6349;50.904;6.136;2023-12-20T13:10:52;6.80;99.90
12568;DHT22;6349;50.904;6.136;2023-12-20T13:12:52;6.80;99.90
12568;DHT22;6349;50.904;6.136;2023-12-20T13:14:53;6.80;99.90
12568;DHT22;6349;50.904;6.136;2023-12-20T13:16:54;6.90;99.90